createdAt,value
2018-12-07T00:00:26.315Z,100660.16
2018-12-07T00:03:11.648Z,100663.50
2018-12-07T00:05:52.050Z,100667.80
2018-12-07T00:08:39.212Z,100640.41
2018-12-07T00:14:15.874Z,100626.82
2018-12-07T00:17:05.664Z,100616.45
2018-12-07T00:20:02.081Z,100623.37
2018-12-07T00:22:36.093Z,100622.71
2018-12-07T00:25:15.656Z,100608.18
2018-12-07T00:27:57.096Z,100604.39
2018-12-07T00:33:38.145Z,100593.42
2018-12-07T00:36:14.463Z,100587.88
2018-12-07T00:41:57.493Z,100585.33
2018-12-07T00:44:33.840Z,100590.31
2018-12-07T00:50:12.657Z,100575.84
2018-12-07T00:53:09.646Z,100573.52
2018-12-07T00:55:40.811Z,100582.28
2018-12-07T00:58:27.475Z,100560.70
2018-12-07T01:01:10.477Z,100567.26
2018-12-07T01:03:50.285Z,100564.71
2018-12-07T01:06:37.444Z,100570.25
2018-12-07T01:15:39.148Z,100560.99
2018-12-07T01:18:21.269Z,100553.84
2018-12-07T01:23:58.780Z,100550.62
2018-12-07T01:26:32.459Z,100546.24
2018-12-07T01:29:18.858Z,100543.02
2018-12-07T01:31:55.825Z,100535.87
2018-12-07T01:37:40.048Z,100529.88
2018-12-07T01:46:22.146Z,100529.72
2018-12-07T01:48:58.574Z,100529.72
2018-12-07T01:51:34.819Z,100520.73
2018-12-07T01:54:12.971Z,100518.30
2018-12-07T01:56:52.019Z,100518.91
2018-12-07T01:59:28.921Z,100515.69
2018-12-07T02:05:10.486Z,100518.58
2018-12-07T02:07:51.421Z,100512.38
2018-12-07T02:10:31.644Z,100514.92
2018-12-07T02:13:17.589Z,100507.20
2018-12-07T02:15:56.333Z,100504.20
2018-12-07T02:18:34.763Z,100492.67
2018-12-07T02:24:19.698Z,100486.91
2018-12-07T02:27:17.147Z,100485.30
2018-12-07T02:30:08.336Z,100491.56
2018-12-07T02:32:43.453Z,100476.00
2018-12-07T02:35:21.589Z,100481.89
2018-12-07T02:37:55.815Z,100474.52
2018-12-07T02:40:32.624Z,100476.84
2018-12-07T02:43:05.079Z,100467.52
2018-12-07T02:45:50.850Z,100464.30
2018-12-07T02:48:26.102Z,100457.94
2018-12-07T02:51:01.011Z,100456.11
2018-12-07T02:53:37.578Z,100459.83
2018-12-07T02:56:14.782Z,100455.45
2018-12-07T02:58:53.566Z,100453.27
2018-12-07T03:01:25.282Z,100451.89
2018-12-07T03:03:59.650Z,100452.23
2018-12-07T03:06:48.098Z,100436.59
2018-12-07T03:09:22.143Z,100442.31
2018-12-07T03:12:08.710Z,100440.70
2018-12-07T03:14:55.594Z,100440.86
2018-12-07T03:17:39.054Z,100435.88
2018-12-07T03:23:25.167Z,100429.90
2018-12-07T03:29:19.824Z,100424.86
2018-12-07T03:32:07.594Z,100420.82
2018-12-07T03:34:43.430Z,100418.20
2018-12-07T03:37:44.850Z,100414.98
2018-12-07T03:40:23.601Z,100408.56
2018-12-07T03:42:56.083Z,100404.90
2018-12-07T03:45:32.559Z,100412.77
2018-12-07T03:48:16.366Z,100410.70
2018-12-07T03:54:17.209Z,100400.24
2018-12-07T03:56:51.615Z,100398.72
2018-12-07T03:59:30.021Z,100390.42
2018-12-07T04:02:16.342Z,100388.59
2018-12-07T04:04:56.162Z,100387.13
2018-12-07T04:07:42.090Z,100361.18
2018-12-07T04:13:23.213Z,100356.14
2018-12-07T04:16:09.841Z,100351.77
2018-12-07T04:18:44.580Z,100341.85
2018-12-07T04:21:19.101Z,100340.02
2018-12-07T04:27:01.231Z,100340.39
2018-12-07T04:29:39.397Z,100337.03
2018-12-07T04:35:28.037Z,100328.16
2018-12-07T04:41:11.179Z,100324.13
2018-12-07T04:46:47.684Z,100314.82
2018-12-07T04:49:47.514Z,100314.22
2018-12-07T04:52:29.392Z,100317.81
2018-12-07T04:55:02.386Z,100307.91
2018-12-07T04:57:37.335Z,100306.30
2018-12-07T05:00:18.828Z,100309.41
2018-12-07T05:02:54.282Z,100303.88
2018-12-07T05:08:30.848Z,100304.59
2018-12-07T05:11:02.653Z,100301.37
2018-12-07T05:13:58.638Z,100299.55
2018-12-07T05:16:28.017Z,100299.33
2018-12-07T05:19:05.569Z,100296.11
2018-12-07T05:21:39.000Z,100295.67
2018-12-07T05:24:13.422Z,100289.91
2018-12-07T05:26:54.350Z,100285.31
2018-12-07T05:29:29.573Z,100285.09
2018-12-07T05:32:00.350Z,100279.11
2018-12-07T05:34:40.866Z,100273.36
2018-12-07T05:37:14.449Z,100269.77
2018-12-07T05:39:52.491Z,100275.45
2018-12-07T05:42:26.966Z,100269.26
2018-12-07T05:45:08.268Z,100266.27
2018-12-07T05:50:51.424Z,100256.60
2018-12-07T05:53:23.163Z,100255.94
2018-12-07T05:55:58.415Z,100252.72
2018-12-07T06:01:38.628Z,100245.85
2018-12-07T06:04:11.187Z,100242.42
2018-12-07T06:06:43.382Z,100237.48
2018-12-07T06:09:14.295Z,100229.53
2018-12-07T06:11:48.598Z,100230.69
2018-12-07T06:19:47.855Z,100223.55
2018-12-07T06:22:21.564Z,100215.03
2018-12-07T06:24:56.785Z,100210.89
2018-12-07T06:27:33.909Z,100198.59
2018-12-07T06:30:05.246Z,100200.55
2018-12-07T06:32:41.334Z,100188.10
2018-12-07T06:35:12.446Z,100189.27
2018-12-07T06:38:00.571Z,100189.64
2018-12-07T06:40:38.866Z,100177.20
2018-12-07T06:43:20.205Z,100185.83
2018-12-07T06:45:51.090Z,100194.13
2018-12-07T06:51:15.480Z,100184.23
2018-12-07T06:53:44.521Z,100178.70
2018-12-07T06:56:18.016Z,100164.53
2018-12-07T06:58:54.095Z,100166.48
2018-12-07T07:01:28.533Z,100162.11
2018-12-07T07:07:12.372Z,100148.95
2018-12-07T07:09:46.458Z,100151.16
2018-12-07T07:12:18.418Z,100153.10
2018-12-07T07:14:56.082Z,100151.72
2018-12-07T07:17:37.144Z,100151.94
2018-12-07T07:20:21.593Z,100145.47
2018-12-07T07:22:53.936Z,100142.36
2018-12-07T07:25:27.561Z,100145.35
2018-12-07T07:31:09.638Z,100132.09
2018-12-07T07:33:50.789Z,100131.87
2018-12-07T07:36:22.740Z,100127.95
2018-12-07T07:38:53.752Z,100131.30
2018-12-07T07:41:23.000Z,100130.71
2018-12-07T07:43:55.715Z,100134.30
2018-12-07T07:46:31.603Z,100121.48
2018-12-07T07:49:05.299Z,100121.70
2018-12-07T07:51:36.005Z,100113.41
2018-12-07T07:54:08.180Z,100110.86
2018-12-07T07:56:37.647Z,100110.73
2018-12-07T07:59:12.270Z,100105.99
2018-12-07T08:04:56.723Z,100053.70
2018-12-07T08:10:41.725Z,100087.96
2018-12-07T08:13:16.414Z,100088.78
2018-12-07T08:15:51.146Z,100086.80
2018-12-07T08:18:22.849Z,100089.66
2018-12-07T08:21:03.199Z,100086.52
2018-12-07T08:23:37.143Z,100087.55
2018-12-07T08:26:07.289Z,100085.61
2018-12-07T08:34:16.794Z,100086.33
2018-12-07T08:37:00.074Z,100080.45
2018-12-07T08:39:51.676Z,100080.08
2018-12-07T08:42:24.488Z,100076.96
2018-12-07T08:44:58.169Z,100070.27
2018-12-07T08:47:33.584Z,100061.02
2018-12-07T08:50:18.219Z,100067.94
2018-12-07T08:53:02.016Z,100064.00
2018-12-07T08:55:37.199Z,100061.46
2018-12-07T08:58:18.199Z,100057.31
2018-12-07T09:00:52.510Z,100052.78
2018-12-07T09:09:49.285Z,100047.17
2018-12-07T09:12:19.133Z,100033.00
2018-12-07T09:14:51.379Z,100034.59
2018-12-07T09:27:00.632Z,100017.70
2018-12-07T09:29:44.192Z,100003.87
2018-12-07T09:32:23.585Z,100001.92
2018-12-07T09:34:58.214Z,100005.12
2018-12-07T09:43:37.634Z,99989.00
2018-12-07T09:46:12.892Z,99979.54
2018-12-07T09:48:51.239Z,99971.45
2018-12-07T09:51:37.557Z,99971.23
2018-12-07T09:54:07.048Z,99970.88
2018-12-07T09:56:46.191Z,99958.65
2018-12-07T09:59:34.628Z,99944.81
2018-12-07T10:02:08.446Z,99934.95
2018-12-07T10:04:39.383Z,99941.88
2018-12-07T10:07:31.495Z,99925.87
2018-12-07T10:12:58.103Z,99917.40
2018-12-07T10:18:23.213Z,99899.48
2018-12-07T10:20:57.673Z,99896.94
2018-12-07T10:23:36.618Z,99901.87
2018-12-07T10:26:14.820Z,99878.80
2018-12-07T10:31:31.159Z,99877.84
2018-12-07T10:34:14.935Z,99871.61
2018-12-07T10:36:48.946Z,99873.63
2018-12-07T10:39:22.379Z,99858.02
2018-12-07T10:41:59.935Z,99853.52
2018-12-07T10:44:37.012Z,99837.91
2018-12-07T10:47:13.514Z,99837.55
2018-12-07T10:49:47.255Z,99828.85
2018-12-07T10:52:30.307Z,99822.95
2018-12-07T10:55:01.214Z,99815.08
2018-12-07T10:57:37.583Z,99807.55
2018-12-07T11:09:14.468Z,99784.12
2018-12-07T11:11:51.171Z,99786.53
2018-12-07T11:14:38.701Z,99777.84
2018-12-07T11:17:33.574Z,99780.46
2018-12-07T11:20:23.676Z,99775.56
2018-12-07T11:23:05.782Z,99762.13
2018-12-07T11:29:07.339Z,99740.83
2018-12-07T11:35:05.987Z,99733.54
2018-12-07T11:37:41.983Z,99714.94
2018-12-07T11:40:13.486Z,99719.51
2018-12-07T11:42:43.834Z,99708.64
2018-12-07T11:48:00.385Z,99699.58
2018-12-07T11:50:38.756Z,99688.91
2018-12-07T11:53:09.803Z,99669.16
2018-12-07T11:56:03.505Z,99654.71
2018-12-07T11:58:41.052Z,99641.28
2018-12-07T12:04:16.049Z,99605.69
2018-12-07T12:06:48.216Z,99612.66
2018-12-07T12:09:27.369Z,99597.27
2018-12-07T12:11:55.791Z,99594.31
2018-12-07T12:14:24.056Z,99572.97
2018-12-07T12:16:52.363Z,99562.09
2018-12-07T12:19:20.663Z,99557.98
2018-12-07T12:21:48.987Z,99555.84
2018-12-07T12:24:17.344Z,99556.05
2018-12-07T12:26:45.721Z,99552.09
2018-12-07T12:29:14.045Z,99526.08
2018-12-07T12:31:42.508Z,99529.32
2018-12-07T12:34:13.774Z,99534.28
2018-12-07T12:36:42.075Z,99519.25
2018-12-07T12:39:10.414Z,99516.69
2018-12-07T12:41:40.323Z,99523.22
2018-12-07T12:44:09.124Z,99508.98
2018-12-07T12:46:37.409Z,99505.04
2018-12-07T12:49:05.735Z,99488.41
2018-12-07T12:51:34.015Z,99485.84
2018-12-07T12:54:02.289Z,99481.28
2018-12-07T12:56:30.598Z,99470.60
2018-12-07T12:59:11.586Z,99466.23
2018-12-07T13:01:39.951Z,99447.05
2018-12-07T13:04:08.246Z,99433.97
2018-12-07T13:06:36.585Z,99425.66
2018-12-07T13:09:08.178Z,99401.72
2018-12-07T13:11:36.503Z,99377.80
2018-12-07T13:14:05.019Z,99383.55
2018-12-07T13:16:33.337Z,99382.19
2018-12-07T13:19:01.654Z,99381.98
2018-12-07T13:21:29.975Z,99379.62
2018-12-07T13:23:58.313Z,99377.66
2018-12-07T13:26:26.608Z,99364.41
2018-12-07T13:28:54.929Z,99356.30
2018-12-07T13:31:23.266Z,99357.11
2018-12-07T13:33:51.556Z,99360.31
2018-12-07T13:36:20.031Z,99358.12
2018-12-07T13:38:48.363Z,99367.82
2018-12-07T13:41:16.705Z,99357.89
2018-12-07T13:43:45.196Z,99349.57
2018-12-07T13:46:13.828Z,99349.16
2018-12-07T13:48:42.448Z,99355.89
2018-12-07T13:51:10.817Z,99351.53
2018-12-07T13:53:39.227Z,99358.27
2018-12-07T13:56:07.702Z,99351.73
2018-12-07T13:58:36.194Z,99348.36
2018-12-07T14:01:04.782Z,99335.88
2018-12-07T14:03:33.352Z,99326.38
2018-12-07T14:06:01.975Z,99332.30
2018-12-07T14:08:30.358Z,99332.91
2018-12-07T14:10:58.720Z,99330.13
2018-12-07T14:13:27.288Z,99314.89
2018-12-07T14:15:55.607Z,99308.53
2018-12-07T14:18:24.734Z,99298.43
2018-12-07T14:20:53.085Z,99298.63
2018-12-07T14:23:21.662Z,99296.84
2018-12-07T14:25:50.210Z,99275.48
2018-12-07T14:28:18.842Z,99282.00
2018-12-07T14:30:53.670Z,99261.01
2018-12-07T14:33:22.121Z,99266.36
2018-12-07T14:35:50.526Z,99258.45
2018-12-07T14:38:40.797Z,99252.70
2018-12-07T14:44:11.772Z,99235.64
2018-12-07T14:46:40.160Z,99235.23
2018-12-07T14:49:08.643Z,99216.42
2018-12-07T14:51:37.504Z,99211.87
2018-12-07T14:54:06.007Z,99198.39
2018-12-07T14:56:34.404Z,99208.87
2018-12-07T14:59:02.986Z,99194.02
2018-12-07T15:01:31.572Z,99190.23
2018-12-07T15:04:00.049Z,99187.67
2018-12-07T15:06:28.463Z,99188.25
2018-12-07T15:08:56.825Z,99189.63
2018-12-07T15:11:25.175Z,99182.88
2018-12-07T15:13:53.631Z,99181.88
2018-12-07T15:16:22.088Z,99183.66
2018-12-07T15:18:50.581Z,99175.53
2018-12-07T15:21:18.921Z,99182.66
2018-12-07T15:23:47.359Z,99175.70
2018-12-07T15:26:15.905Z,99168.58
2018-12-07T15:28:44.341Z,99170.91
2018-12-07T15:31:12.882Z,99161.59
2018-12-07T15:33:41.546Z,99168.12
2018-12-07T15:36:10.263Z,99156.44
2018-12-07T15:38:38.720Z,99165.52
2018-12-07T15:41:07.388Z,99159.95
2018-12-07T15:43:35.963Z,99144.89
2018-12-07T15:46:04.481Z,99149.58
2018-12-07T15:48:32.887Z,99145.16
2018-12-07T15:51:01.341Z,99138.58
2018-12-07T15:53:29.763Z,99138.53
2018-12-07T15:55:58.187Z,99136.13
2018-12-07T15:58:26.754Z,99114.38
2018-12-07T16:00:55.189Z,99111.97
2018-12-07T16:03:23.723Z,99100.87
2018-12-07T16:05:52.373Z,99100.05
2018-12-07T16:08:24.996Z,99105.94
2018-12-07T16:10:52.926Z,99094.04
2018-12-07T16:13:21.485Z,99086.31
2018-12-07T16:15:49.885Z,99081.14
2018-12-07T16:18:18.369Z,99072.03
2018-12-07T16:20:46.771Z,99068.66
2018-12-07T16:23:15.111Z,99068.05
2018-12-07T16:25:43.480Z,99067.22
2018-12-07T16:28:11.825Z,99066.41
2018-12-07T16:30:40.427Z,99062.82
2018-12-07T16:33:08.989Z,99058.43
2018-12-07T16:35:37.410Z,99048.15
2018-12-07T16:38:05.813Z,99037.29
2018-12-07T16:40:34.218Z,99028.75
2018-12-07T16:43:02.799Z,99028.74
2018-12-07T16:45:31.202Z,99018.87
2018-12-07T16:47:59.666Z,99016.88
2018-12-07T16:50:28.085Z,99013.10
2018-12-07T16:52:56.469Z,99005.21
2018-12-07T16:55:24.939Z,98999.25
2018-12-07T16:57:53.611Z,99006.55
2018-12-07T17:00:22.069Z,99000.62
2018-12-07T17:02:50.357Z,98991.32
2018-12-07T17:05:18.712Z,98997.81
2018-12-07T17:07:47.110Z,98986.56
2018-12-07T17:10:15.865Z,98991.10
2018-12-07T17:12:44.554Z,98980.42
2018-12-07T17:15:12.925Z,98984.33
2018-12-07T17:17:41.292Z,98986.89
2018-12-07T17:20:09.972Z,98973.08
2018-12-07T17:22:38.518Z,98967.35
2018-12-07T17:25:07.204Z,98918.63
2018-12-07T17:27:35.593Z,98952.77
2018-12-07T17:30:05.517Z,98949.20
2018-12-07T17:32:34.100Z,98949.80
2018-12-07T17:35:02.818Z,98948.78
2018-12-07T17:37:31.475Z,98941.31
2018-12-07T17:39:59.906Z,98905.38
2018-12-07T17:42:34.379Z,98961.22
2018-12-07T17:45:07.509Z,98981.35
2018-12-07T17:47:48.369Z,98993.17
2018-12-07T17:50:17.534Z,98989.03
2018-12-07T17:52:46.169Z,99019.00
2018-12-07T17:55:14.577Z,99040.47
2018-12-07T17:57:43.012Z,99046.76
2018-12-07T18:00:13.435Z,99058.97
2018-12-07T18:02:41.890Z,99047.88
2018-12-07T18:05:23.574Z,99064.64
2018-12-07T18:07:52.365Z,99075.42
2018-12-07T18:10:24.214Z,99069.07
2018-12-07T18:13:02.689Z,99072.78
2018-12-07T18:15:33.152Z,99082.38
2018-12-07T18:18:01.536Z,99091.81
2018-12-07T18:20:41.888Z,99090.73
2018-12-07T18:26:19.336Z,99093.76
2018-12-07T19:12:33.242Z,99296.64
2018-12-07T19:15:01.874Z,99330.08
2018-12-07T19:17:51.880Z,99334.66
2018-12-07T19:20:33.832Z,99341.33
2018-12-07T19:26:15.491Z,99362.38
2018-12-07T19:28:44.009Z,99358.72
2018-12-07T19:31:12.442Z,99375.63
2018-12-07T19:33:55.082Z,99367.75
2018-12-07T19:36:36.636Z,99359.10
2018-12-07T19:39:19.058Z,99342.09
2018-12-07T19:41:47.478Z,99388.23
2018-12-07T19:44:28.291Z,99337.03
2018-12-07T19:46:56.769Z,99394.10
2018-12-07T19:49:25.098Z,99401.67
2018-12-07T19:51:53.497Z,99401.00
2018-12-07T19:54:22.026Z,99407.41
2018-12-07T19:56:50.375Z,99406.97
2018-12-07T19:59:32.032Z,99380.78
2018-12-07T20:02:00.384Z,99421.63
2018-12-07T20:04:41.441Z,99425.06
2018-12-07T20:07:22.801Z,99372.78
2018-12-07T20:10:06.074Z,99431.48
2018-12-07T20:12:34.666Z,99447.95
2018-12-07T20:15:03.114Z,99448.29
2018-12-07T20:17:31.730Z,99456.52
2018-12-07T20:20:01.831Z,99456.30
2018-12-07T20:22:44.596Z,99412.10
2018-12-07T20:25:13.119Z,99459.64
2018-12-07T20:27:55.720Z,99470.84
2018-12-07T20:30:37.366Z,99487.88
2018-12-07T20:33:19.824Z,99447.00
2018-12-07T20:35:48.348Z,99497.02
2018-12-07T20:38:30.505Z,99460.13
2018-12-07T20:40:58.971Z,99513.39
2018-12-07T20:43:40.724Z,99475.68
2018-12-07T20:46:22.557Z,99530.09
2018-12-07T20:49:03.388Z,99499.72
2018-12-07T20:51:31.768Z,99539.94
2018-12-07T20:54:14.496Z,99550.92
2018-12-07T20:56:42.976Z,99541.53
2018-12-07T20:59:25.764Z,99553.67
2018-12-07T21:02:08.308Z,99558.24
2018-12-07T21:07:53.366Z,99556.87
2018-12-07T21:10:56.777Z,99532.98
2018-12-07T21:17:08.630Z,99594.18
2018-12-07T21:19:51.345Z,99547.41
2018-12-07T21:22:34.351Z,99591.90
2018-12-07T21:25:02.795Z,99593.59
2018-12-07T21:27:43.695Z,99599.91
2018-12-07T21:33:38.419Z,99606.77
2018-12-07T21:36:40.953Z,99612.49
2018-12-07T21:39:22.633Z,99582.41
2018-12-07T21:41:54.454Z,99626.22
2018-12-07T21:44:37.600Z,99633.09
2018-12-07T21:47:25.992Z,99634.69
2018-12-07T21:50:10.336Z,99636.52
2018-12-07T21:53:02.547Z,99615.47
2018-12-07T21:55:44.434Z,99630.57
2018-12-07T21:58:27.019Z,99677.48
2018-12-07T22:01:07.866Z,99630.67
2018-12-07T22:06:36.510Z,99682.42
2018-12-07T22:09:17.335Z,99674.05
2018-12-07T22:11:58.768Z,99674.28
2018-12-07T22:14:40.479Z,99636.14
2018-12-07T22:17:22.021Z,99688.00
2018-12-07T22:19:50.340Z,99688.00
2018-12-07T22:22:31.779Z,99650.16
2018-12-07T22:25:15.342Z,99701.90
2018-12-07T22:27:56.954Z,99701.34
2018-12-07T22:30:26.072Z,99699.59
2018-12-07T22:33:13.808Z,99657.87
2018-12-07T22:35:56.639Z,99664.27
2018-12-07T22:38:25.342Z,99714.42
2018-12-07T22:41:06.562Z,99717.26
2018-12-07T22:43:35.934Z,99728.00
2018-12-07T22:46:19.315Z,99731.89
2018-12-07T22:49:00.254Z,99687.42
2018-12-07T22:51:40.904Z,99702.15
2018-12-07T22:54:23.225Z,99744.70
2018-12-07T22:57:05.778Z,99695.06
2018-12-07T22:59:46.444Z,99735.77
2018-12-07T23:02:31.112Z,99748.95
2018-12-07T23:05:11.847Z,99739.94
2018-12-07T23:07:53.397Z,99739.12
2018-12-07T23:10:34.950Z,99693.25
2018-12-07T23:13:06.231Z,99740.26
2018-12-07T23:15:49.097Z,99734.54
2018-12-07T23:18:17.389Z,99735.68
2018-12-07T23:20:58.331Z,99713.90
2018-12-07T23:23:39.957Z,99703.98
2018-12-07T23:26:23.388Z,99738.86
2018-12-07T23:28:57.440Z,99743.89
2018-12-07T23:31:40.103Z,99741.59
2018-12-07T23:34:11.389Z,99737.00
2018-12-07T23:36:52.482Z,99739.61
2018-12-07T23:39:22.091Z,99742.47
2018-12-07T23:41:53.874Z,99748.86
2018-12-07T23:44:28.578Z,99753.06
2018-12-07T23:47:03.355Z,99740.25
2018-12-07T23:49:31.770Z,99758.43
2018-12-07T23:52:12.413Z,99715.52
2018-12-07T23:54:53.058Z,99751.19
2018-12-07T23:57:24.573Z,99746.93
